Time;durP1;ratioP1;P1;durP2;ratioP2;P2;SDS_P1;SDS_P2;PMS_P1;PMS_P2;Temp;Humidity;BMP_temperature;BMP_pressure;BME280_temperature;BME280_humidity;BME280_pressure;Samples;Min_cycle;Max_cycle;Signal;HPM_P1;HPM_P2
2022/11/18 00:02:22;;;;;;;3.37;2.60;;;10.50;99.90;;;;;;4993471;28;20619;-69
2022/11/18 00:04:48;;;;;;;8.73;2.90;;;10.50;99.90;;;;;;4994188;28;20187;-69
2022/11/18 00:07:13;;;;;;;4.73;2.90;;;10.50;99.90;;;;;;4993905;28;20175;-68
2022/11/18 00:09:41;;;;;;;5.30;2.70;;;10.60;99.90;;;;;;4994142;28;20900;-68
2022/11/18 00:14:51;;;;;;;4.60;2.67;;;10.60;99.90;;;;;;4994130;28;20182;-69
2022/11/18 00:17:17;;;;;;;3.80;2.60;;;10.60;99.90;;;;;;4992878;28;20171;-69
2022/11/18 00:19:42;;;;;;;5.83;2.50;;;10.50;99.90;;;;;;4994263;28;20258;-70
2022/11/18 00:22:11;;;;;;;5.50;2.97;;;10.60;99.90;;;;;;4993727;28;20507;-68
2022/11/18 00:24:37;;;;;;;2.73;2.30;;;10.60;99.90;;;;;;4993818;28;20222;-69
2022/11/18 00:27:09;;;;;;;4.93;2.67;;;10.50;99.90;;;;;;4993991;28;20176;-69
2022/11/18 00:29:34;;;;;;;4.93;2.53;;;10.60;99.90;;;;;;4993838;28;20209;-68
2022/11/18 00:32:00;;;;;;;2.97;2.30;;;10.60;99.90;;;;;;4993856;28;20254;-69
2022/11/18 00:34:26;;;;;;;5.13;3.07;;;10.50;99.90;;;;;;4993950;28;20519;-68
2022/11/18 00:36:51;;;;;;;5.50;2.57;;;10.50;99.90;;;;;;4993177;28;20265;-69
2022/11/18 00:39:19;;;;;;;3.57;2.50;;;10.50;99.90;;;;;;4993822;28;20285;-68
2022/11/18 00:44:30;;;;;;;5.10;2.53;;;10.60;99.90;;;;;;4994101;28;20194;-68
2022/11/18 00:46:58;;;;;;;6.77;2.50;;;10.60;99.90;;;;;;4993858;28;20178;-68
2022/11/18 00:49:24;;;;;;;9.37;3.20;;;10.60;99.90;;;;;;4993283;28;20636;-69
2022/11/18 00:51:49;;;;;;;10.50;3.20;;;10.60;99.90;;;;;;4993709;28;20234;-71
2022/11/18 00:54:15;;;;;;;4.40;2.67;;;10.70;99.90;;;;;;4993734;28;20171;-69
2022/11/18 00:56:41;;;;;;;6.17;2.83;;;10.70;99.90;;;;;;4993502;28;20230;-68
2022/11/18 00:59:06;;;;;;;4.33;2.27;;;10.60;99.90;;;;;;4993777;28;20534;-69
2022/11/18 01:01:32;;;;;;;7.63;2.10;;;10.60;99.90;;;;;;4993690;28;20172;-69
2022/11/18 01:04:01;;;;;;;3.40;2.40;;;10.60;99.90;;;;;;4993123;28;20183;-70
2022/11/18 01:06:27;;;;;;;2.87;1.93;;;10.60;99.90;;;;;;4997155;28;20171;-69
2022/11/18 01:08:52;;;;;;;4.57;2.43;;;10.50;99.90;;;;;;4997657;28;20518;-70
2022/11/18 01:14:02;;;;;;;6.13;2.67;;;10.50;99.90;;;;;;4997612;28;20294;-68
2022/11/18 01:16:28;;;;;;;3.07;2.30;;;10.40;99.90;;;;;;4997417;28;20235;-67
2022/11/18 01:18:54;;;;;;;3.87;1.90;;;10.40;99.90;;;;;;4997151;28;20186;-68
2022/11/18 01:21:20;;;;;;;4.30;2.10;;;10.40;99.90;;;;;;4997397;28;20175;-69
2022/11/18 01:23:48;;;;;;;3.10;2.23;;;10.20;99.90;;;;;;4997185;28;20619;-69
2022/11/18 01:26:15;;;;;;;4.07;1.70;;;10.20;99.90;;;;;;4997346;28;20187;-68
2022/11/18 01:28:44;;;;;;;5.37;2.00;;;10.30;99.90;;;;;;4997214;28;20163;-69
2022/11/18 01:31:17;;;;;;;4.13;2.27;;;10.20;99.90;;;;;;4997164;28;20185;-68
2022/11/18 01:33:44;;;;;;;5.07;2.33;;;10.20;99.90;;;;;;4996867;28;20215;-69
2022/11/18 01:36:19;;;;;;;3.17;2.20;;;10.10;99.90;;;;;;4995628;28;20234;-68
2022/11/18 01:38:47;;;;;;;3.33;1.73;;;10.10;99.90;;;;;;4995870;28;20198;-69
2022/11/18 01:41:14;;;;;;;5.83;2.57;;;10.10;99.90;;;;;;4997204;28;20254;-69
2022/11/18 01:43:52;;;;;;;4.17;2.30;;;10.00;99.90;;;;;;4997081;28;20167;-68
2022/11/18 01:46:18;;;;;;;3.60;2.00;;;10.00;99.90;;;;;;4996847;28;20182;-68
2022/11/18 01:48:54;;;;;;;4.43;2.00;;;10.00;99.90;;;;;;4996304;28;20171;-68
2022/11/18 01:51:25;;;;;;;8.20;2.23;;;9.90;99.90;;;;;;4996875;28;20662;-69
2022/11/18 01:53:59;;;;;;;4.07;1.83;;;9.90;99.90;;;;;;4996852;28;20206;-69
2022/11/18 01:56:40;;;;;;;4.33;2.00;;;9.90;99.90;;;;;;4996753;28;20218;-69
2022/11/18 01:59:10;;;;;;;3.83;2.20;;;9.80;99.90;;;;;;4996981;28;20165;-68
2022/11/18 02:01:36;;;;;;;3.20;2.20;;;9.80;99.90;;;;;;4996767;28;20186;-69
2022/11/18 02:04:02;;;;;;;5.30;2.23;;;9.80;99.90;;;;;;4996294;28;20202;-69
2022/11/18 02:06:28;;;;;;;5.07;2.20;;;9.80;99.90;;;;;;4996598;28;20193;-68
2022/11/18 02:08:54;;;;;;;6.00;2.60;;;9.80;99.90;;;;;;4996573;28;20221;-68
2022/11/18 02:14:07;;;;;;;3.00;2.23;;;9.70;99.90;;;;;;4996325;28;20193;-68
2022/11/18 02:16:47;;;;;;;4.80;2.20;;;9.70;99.90;;;;;;4994916;28;20175;-69
2022/11/18 02:19:45;;;;;;;4.20;2.33;;;9.70;99.90;;;;;;4996471;28;20207;-68
2022/11/18 02:22:32;;;;;;;8.23;2.37;;;9.60;99.90;;;;;;4984491;28;20190;-68
2022/11/18 02:25:05;;;;;;;2.33;2.13;;;9.60;99.90;;;;;;4996475;28;20253;-68
2022/11/18 02:28:13;;;;;;;6.87;2.33;;;9.60;99.90;;;;;;4996081;28;20168;-68
2022/11/18 02:31:07;;;;;;;3.63;2.43;;;9.70;99.90;;;;;;4974543;28;20179;-69
2022/11/18 02:33:35;;;;;;;4.73;2.23;;;9.80;99.90;;;;;;4958439;28;20216;-68
2022/11/18 02:36:39;;;;;;;6.10;2.90;;;9.80;99.90;;;;;;4974345;28;20278;-68
2022/11/18 02:39:18;;;;;;;6.03;2.87;;;9.80;99.90;;;;;;4958225;28;20191;-69
2022/11/18 02:41:46;;;;;;;2.53;2.33;;;9.70;99.90;;;;;;4974524;28;20223;-68
2022/11/18 02:44:20;;;;;;;4.20;2.63;;;9.60;99.90;;;;;;4974456;28;20311;-69
2022/11/18 02:46:53;;;;;;;4.50;2.60;;;9.50;99.90;;;;;;4974114;28;20207;-68
2022/11/18 02:49:28;;;;;;;4.33;2.80;;;9.50;99.90;;;;;;4957963;28;20238;-69
2022/11/18 02:51:58;;;;;;;2.57;2.33;;;9.50;99.90;;;;;;4974433;28;20226;-69
2022/11/18 02:54:28;;;;;;;4.77;2.00;;;9.50;99.90;;;;;;4974115;28;20668;-68
2022/11/18 02:56:54;;;;;;;3.80;2.73;;;9.50;99.90;;;;;;4974225;28;20179;-69
2022/11/18 02:59:20;;;;;;;8.13;2.90;;;9.40;99.90;;;;;;4974226;28;20198;-69
2022/11/18 03:01:46;;;;;;;4.17;2.67;;;9.40;99.90;;;;;;4988425;28;20183;-68
2022/11/18 03:04:14;;;;;;;4.20;2.90;;;9.40;99.90;;;;;;4995489;28;20685;-69
2022/11/18 03:07:12;;;;;;;4.33;2.80;;;9.40;99.90;;;;;;4995482;28;20186;-68
2022/11/18 03:09:42;;;;;;;6.33;2.80;;;9.40;99.90;;;;;;4988028;28;20589;-68
2022/11/18 03:12:17;;;;;;;4.73;2.90;;;9.30;99.90;;;;;;4995220;28;20213;-67
2022/11/18 03:14:58;;;;;;;3.27;2.90;;;9.30;99.90;;;;;;4995189;28;20246;-69
2022/11/18 03:17:39;;;;;;;4.23;3.20;;;9.30;99.90;;;;;;4995411;28;20168;-69
2022/11/18 03:20:28;;;;;;;8.17;2.90;;;9.20;99.90;;;;;;4994021;28;20635;-68
2022/11/18 03:23:25;;;;;;;5.23;2.93;;;9.20;99.90;;;;;;4995350;28;20639;-68
2022/11/18 03:26:00;;;;;;;6.20;2.67;;;9.20;99.90;;;;;;4995120;28;20171;-68
2022/11/18 03:28:46;;;;;;;5.20;2.87;;;9.20;99.90;;;;;;4993485;28;20273;-69
2022/11/18 03:31:20;;;;;;;6.40;2.80;;;9.20;99.90;;;;;;4994971;28;20171;-68
2022/11/18 03:34:04;;;;;;;7.50;3.00;;;9.20;99.90;;;;;;4994986;28;20234;-69
2022/11/18 03:36:36;;;;;;;4.17;2.40;;;9.10;99.90;;;;;;4994689;28;20246;-69
2022/11/18 03:39:06;;;;;;;6.73;2.53;;;9.10;99.90;;;;;;4994914;28;20171;-67
2022/11/18 03:41:35;;;;;;;4.37;2.60;;;9.10;99.90;;;;;;4995000;28;20171;-68
2022/11/18 03:44:06;;;;;;;7.83;2.93;;;9.10;99.90;;;;;;4994467;28;20171;-68
2022/11/18 03:46:38;;;;;;;4.40;2.77;;;9.10;99.90;;;;;;4994795;28;20254;-69
2022/11/18 03:49:06;;;;;;;4.47;2.93;;;9.10;99.90;;;;;;4994766;28;20195;-69
2022/11/18 03:51:38;;;;;;;4.70;2.50;;;9.10;99.90;;;;;;4993262;28;20654;-68
2022/11/18 03:54:22;;;;;;;8.77;2.83;;;9.10;99.90;;;;;;4993311;28;20191;-68
2022/11/18 03:57:13;;;;;;;9.50;2.80;;;9.00;99.90;;;;;;4994591;28;20173;-68
2022/11/18 03:59:44;;;;;;;3.30;2.33;;;9.00;99.90;;;;;;4983492;28;20270;-68
2022/11/18 04:02:15;;;;;;;4.50;2.87;;;9.10;99.90;;;;;;4993185;28;20238;-69
2022/11/18 04:04:42;;;;;;;4.37;2.50;;;9.10;99.90;;;;;;4994117;28;20191;-68
2022/11/18 04:07:49;;;;;;;5.87;2.67;;;9.10;99.90;;;;;;4994471;28;20163;-68
2022/11/18 04:10:45;;;;;;;4.10;2.60;;;9.00;99.90;;;;;;4994433;28;20239;-68
2022/11/18 04:13:37;;;;;;;2.50;2.30;;;8.90;99.90;;;;;;4993287;28;20706;-68
2022/11/18 04:16:06;;;;;;;4.93;2.90;;;9.00;99.90;;;;;;4992908;28;20183;-68
2022/11/18 04:18:31;;;;;;;3.27;2.43;;;8.90;99.90;;;;;;4993894;28;20171;-68
2022/11/18 04:20:57;;;;;;;3.50;2.40;;;9.00;99.90;;;;;;4993965;28;20655;-69
2022/11/18 04:23:23;;;;;;;5.00;2.53;;;9.00;99.90;;;;;;4993752;28;20689;-68
2022/11/18 04:25:48;;;;;;;5.73;2.80;;;9.00;99.90;;;;;;4993178;28;20175;-69
2022/11/18 04:28:14;;;;;;;4.73;2.80;;;9.00;99.90;;;;;;4993427;28;20654;-69
2022/11/18 04:30:39;;;;;;;6.50;2.40;;;9.00;99.90;;;;;;4993897;28;20182;-69
2022/11/18 04:33:05;;;;;;;5.77;3.03;;;9.00;99.90;;;;;;4993855;28;20294;-68
2022/11/18 04:35:33;;;;;;;5.20;2.50;;;9.00;99.90;;;;;;4993669;28;20171;-69
2022/11/18 04:38:02;;;;;;;5.20;2.30;;;8.90;99.90;;;;;;4993755;28;20167;-70
2022/11/18 04:40:27;;;;;;;5.97;2.93;;;8.90;99.90;;;;;;4993003;28;20167;-69
2022/11/18 04:42:53;;;;;;;3.13;2.67;;;8.90;99.90;;;;;;4993350;28;20538;-69
2022/11/18 04:45:18;;;;;;;4.20;2.60;;;8.90;99.90;;;;;;4993786;28;20262;-69
2022/11/18 04:47:44;;;;;;;5.57;2.60;;;8.80;99.90;;;;;;4993583;28;20174;-69
2022/11/18 04:50:09;;;;;;;5.43;3.23;;;8.80;99.90;;;;;;4992974;28;20175;-68
2022/11/18 04:52:38;;;;;;;4.73;2.90;;;8.80;99.90;;;;;;4993467;28;20214;-68
2022/11/18 04:55:04;;;;;;;4.70;2.83;;;8.80;99.90;;;;;;4991408;28;20171;-68
2022/11/18 04:57:29;;;;;;;4.97;2.50;;;8.80;99.90;;;;;;4992767;28;20183;-69
2022/11/18 04:59:55;;;;;;;7.43;3.13;;;8.80;99.90;;;;;;4993710;28;20250;-68
2022/11/18 05:02:21;;;;;;;5.47;3.00;;;8.80;99.90;;;;;;4992988;28;20163;-68
2022/11/18 05:04:46;;;;;;;7.23;2.93;;;8.80;99.90;;;;;;4992951;28;20246;-68
2022/11/18 05:07:14;;;;;;;5.80;3.03;;;8.80;99.90;;;;;;4992342;28;20172;-69
2022/11/18 05:09:43;;;;;;;6.37;2.80;;;8.80;99.90;;;;;;4992819;28;20163;-68
2022/11/18 05:14:56;;;;;;;10.23;2.97;;;8.70;99.90;;;;;;4993787;28;20218;-69
2022/11/18 05:17:21;;;;;;;7.33;3.10;;;8.70;99.90;;;;;;4993249;28;20191;-68
2022/11/18 05:19:53;;;;;;;5.63;2.60;;;8.70;99.90;;;;;;4993652;28;20250;-68
2022/11/18 05:22:19;;;;;;;6.17;2.73;;;8.70;99.90;;;;;;4993245;28;20172;-68
2022/11/18 05:24:45;;;;;;;10.00;3.00;;;8.60;99.90;;;;;;4992785;28;20180;-68
2022/11/18 05:27:11;;;;;;;12.93;3.33;;;8.70;99.90;;;;;;4992015;28;20670;-68
2022/11/18 05:29:37;;;;;;;6.23;3.10;;;8.70;99.90;;;;;;4992862;28;20178;-68
2022/11/18 05:32:03;;;;;;;7.70;3.17;;;8.70;99.90;;;;;;4992842;28;20195;-68
2022/11/18 05:34:28;;;;;;;7.23;3.50;;;8.70;99.90;;;;;;4991648;28;20194;-67
2022/11/18 05:36:54;;;;;;;7.30;3.07;;;8.60;99.90;;;;;;4992689;28;20227;-68
2022/11/18 05:39:19;;;;;;;7.63;3.03;;;8.60;99.90;;;;;;4992413;28;20315;-68
2022/11/18 05:44:32;;;;;;;10.27;2.97;;;8.60;99.90;;;;;;4993001;28;20182;-68
2022/11/18 05:46:59;;;;;;;7.27;3.43;;;8.60;99.90;;;;;;4993238;28;20233;-68
2022/11/18 05:49:24;;;;;;;5.67;2.77;;;8.60;99.90;;;;;;4992759;28;20258;-66
2022/11/18 05:51:50;;;;;;;8.90;3.37;;;8.50;99.90;;;;;;4994444;28;20294;-68
2022/11/18 05:54:18;;;;;;;8.40;3.27;;;8.60;99.90;;;;;;4995772;28;20194;-68
2022/11/18 05:56:44;;;;;;;8.03;2.93;;;8.50;99.90;;;;;;4996211;28;20171;-68
2022/11/18 05:59:10;;;;;;;4.80;2.90;;;8.50;99.90;;;;;;4996115;28;20171;-67
2022/11/18 06:01:56;;;;;;;5.83;3.07;;;8.50;99.90;;;;;;4996032;28;20635;-68
2022/11/18 06:04:31;;;;;;;9.60;3.47;;;8.50;99.90;;;;;;4995461;28;20330;-68
2022/11/18 06:07:03;;;;;;;7.67;3.37;;;8.50;99.90;;;;;;4996229;28;20167;-68
2022/11/18 06:09:33;;;;;;;6.40;3.30;;;8.50;99.90;;;;;;4994488;28;20263;-67
2022/11/18 06:12:00;;;;;;;5.03;3.03;;;8.50;99.90;;;;;;4995613;28;20187;-68
2022/11/18 06:14:34;;;;;;;6.57;3.20;;;8.50;99.90;;;;;;4995907;28;20198;-68
2022/11/18 06:17:02;;;;;;;5.87;3.30;;;8.50;99.90;;;;;;4994412;28;20582;-68
2022/11/18 06:19:28;;;;;;;7.50;3.13;;;8.50;99.90;;;;;;4995918;28;20195;-67
2022/11/18 06:21:54;;;;;;;6.70;2.90;;;8.60;99.90;;;;;;4995343;28;20650;-67
2022/11/18 06:24:20;;;;;;;9.80;3.40;;;8.50;99.90;;;;;;4994329;28;20175;-68
2022/11/18 06:26:46;;;;;;;8.70;3.80;;;8.50;99.90;;;;;;4994831;28;20179;-68
2022/11/18 06:29:15;;;;;;;11.27;4.00;;;8.50;99.90;;;;;;4994975;28;20189;-68
2022/11/18 06:31:40;;;;;;;5.47;2.93;;;8.60;99.90;;;;;;4994887;28;20191;-69
2022/11/18 06:34:06;;;;;;;4.57;2.80;;;8.60;99.90;;;;;;4995072;28;20702;-68
2022/11/18 06:36:32;;;;;;;8.37;3.10;;;8.60;99.90;;;;;;4994502;28;20281;-68
2022/11/18 06:39:02;;;;;;;7.73;2.77;;;8.60;99.90;;;;;;4994629;28;20241;-66
2022/11/18 06:41:28;;;;;;;6.50;2.93;;;8.60;99.90;;;;;;4994130;28;20167;-67
2022/11/18 06:43:54;;;;;;;8.87;3.43;;;8.60;99.90;;;;;;4995330;28;20662;-68
2022/11/18 06:49:03;;;;;;;6.43;2.77;;;8.70;99.90;;;;;;4994708;28;20237;-66
2022/11/18 06:51:32;;;;;;;5.93;2.97;;;8.70;99.90;;;;;;4994407;28;20175;-68
2022/11/18 06:53:58;;;;;;;6.50;2.83;;;8.70;99.90;;;;;;4994690;28;20211;-69
2022/11/18 06:56:27;;;;;;;7.67;3.10;;;8.80;99.90;;;;;;4993564;28;20183;-68
2022/11/18 06:58:54;;;;;;;9.47;3.23;;;8.80;99.90;;;;;;4994459;28;20171;-68
2022/11/18 07:01:22;;;;;;;9.63;3.27;;;8.80;99.90;;;;;;4993949;28;20170;-69
2022/11/18 07:03:48;;;;;;;6.90;3.23;;;8.90;99.90;;;;;;4993629;28;20240;-68
2022/11/18 07:06:17;;;;;;;7.07;2.90;;;8.90;99.90;;;;;;4994027;28;20206;-69
2022/11/18 07:08:43;;;;;;;7.70;3.53;;;8.90;99.90;;;;;;4994007;28;20255;-69
2022/11/18 07:11:13;;;;;;;6.47;3.03;;;8.90;99.90;;;;;;4993610;28;20693;-67
2022/11/18 07:13:39;;;;;;;8.47;3.63;;;9.00;99.90;;;;;;4994546;28;20230;-69
2022/11/18 07:16:11;;;;;;;8.13;3.57;;;9.00;99.90;;;;;;4992480;28;20544;-69
2022/11/18 07:18:38;;;;;;;8.67;3.20;;;9.10;99.90;;;;;;4993978;28;20179;-68
2022/11/18 07:21:06;;;;;;;9.43;3.37;;;9.20;99.90;;;;;;4994250;28;20175;-69
2022/11/18 07:23:33;;;;;;;7.73;3.10;;;9.30;99.90;;;;;;4993589;28;20206;-68
2022/11/18 07:25:59;;;;;;;10.77;3.03;;;9.30;99.90;;;;;;4993878;28;20195;-68
2022/11/18 07:28:26;;;;;;;7.47;3.30;;;9.40;99.90;;;;;;4994163;28;20253;-69
2022/11/18 07:30:51;;;;;;;7.97;3.40;;;9.50;99.90;;;;;;4993914;28;20175;-68
2022/11/18 07:33:18;;;;;;;10.70;2.80;;;9.50;99.90;;;;;;4991879;28;20505;-68
2022/11/18 07:35:43;;;;;;;10.27;2.83;;;9.60;99.90;;;;;;4992069;28;20225;-67
2022/11/18 07:38:09;;;;;;;8.43;3.00;;;9.80;99.90;;;;;;4993861;28;20183;-67
2022/11/18 07:40:34;;;;;;;9.93;3.23;;;9.90;99.90;;;;;;4993302;28;20195;-68
2022/11/18 07:43:03;;;;;;;8.77;3.07;;;9.90;99.90;;;;;;4993407;28;20175;-69
2022/11/18 07:45:29;;;;;;;6.17;2.73;;;9.90;99.90;;;;;;4993971;28;20172;-68
2022/11/18 07:47:54;;;;;;;5.50;2.83;;;9.90;99.90;;;;;;4993399;28;20690;-69
2022/11/18 07:50:20;;;;;;;9.43;3.00;;;9.90;99.90;;;;;;4992605;28;20182;-69
2022/11/18 07:52:45;;;;;;;7.57;2.63;;;9.90;99.90;;;;;;4991994;28;20207;-69
2022/11/18 07:55:11;;;;;;;8.47;2.90;;;10.00;99.90;;;;;;4993190;28;20179;-70
2022/11/18 07:57:37;;;;;;;5.77;2.77;;;10.00;99.90;;;;;;4993265;28;20179;-68
2022/11/18 08:00:06;;;;;;;8.13;3.10;;;10.00;99.90;;;;;;4993227;28;20168;-68
2022/11/18 08:02:31;;;;;;;6.53;3.00;;;10.00;99.90;;;;;;4992472;28;20206;-68
2022/11/18 08:04:57;;;;;;;7.33;3.20;;;10.00;99.90;;;;;;4992977;28;20198;-69
2022/11/18 08:07:22;;;;;;;10.10;2.87;;;9.90;99.90;;;;;;4993136;28;20179;-68
2022/11/18 08:09:48;;;;;;;10.77;3.63;;;9.90;99.90;;;;;;4993440;28;20594;-68
2022/11/18 08:12:13;;;;;;;5.27;3.50;;;9.90;99.90;;;;;;4993148;28;20207;-68
2022/11/18 08:14:39;;;;;;;9.07;2.77;;;9.90;99.90;;;;;;4990839;28;20221;-66
2022/11/18 08:17:05;;;;;;;10.17;3.20;;;10.00;99.90;;;;;;4988555;28;20635;-68
2022/11/18 08:19:33;;;;;;;8.63;3.47;;;10.00;99.90;;;;;;4992916;28;20215;-67
2022/11/18 08:21:59;;;;;;;7.00;3.00;;;10.00;99.90;;;;;;4993314;28;20181;-68
2022/11/18 08:24:25;;;;;;;6.63;2.93;;;10.10;99.90;;;;;;4993238;28;20168;-68
2022/11/18 08:26:50;;;;;;;6.87;3.23;;;10.10;99.90;;;;;;4991853;28;20565;-67
2022/11/18 08:29:16;;;;;;;4.43;3.00;;;10.10;99.90;;;;;;4991322;28;20172;-67
2022/11/18 08:31:42;;;;;;;7.33;3.07;;;10.10;99.90;;;;;;5004510;28;20179;-69
2022/11/18 08:34:27;;;;;;;7.93;3.87;;;10.10;99.90;;;;;;4995762;28;20183;-68
2022/11/18 08:36:54;;;;;;;7.40;3.07;;;10.20;99.90;;;;;;4988241;28;20219;-68
2022/11/18 08:39:39;;;;;;;8.00;3.13;;;10.20;99.90;;;;;;4992062;28;20621;-68
2022/11/18 08:42:05;;;;;;;9.90;3.60;;;10.10;99.90;;;;;;4991235;28;20559;-68
2022/11/18 08:44:33;;;;;;;5.60;3.20;;;10.10;99.90;;;;;;4992190;28;20175;-68
2022/11/18 08:46:59;;;;;;;6.80;3.70;;;10.20;99.90;;;;;;4992220;28;20611;-68
2022/11/18 08:49:24;;;;;;;6.90;4.07;;;10.30;99.90;;;;;;4992142;28;20266;-67
2022/11/18 08:51:50;;;;;;;6.57;3.40;;;10.30;99.90;;;;;;4992570;28;20190;-68
2022/11/18 08:54:16;;;;;;;8.90;3.57;;;10.30;99.90;;;;;;4992532;28;20539;-67
2022/11/18 08:56:41;;;;;;;8.80;3.90;;;10.30;99.90;;;;;;4991401;28;20179;-69
2022/11/18 08:59:07;;;;;;;7.13;3.30;;;10.40;99.90;;;;;;4992213;28;20164;-69
2022/11/18 09:01:35;;;;;;;5.33;3.10;;;10.40;99.90;;;;;;4991604;28;20182;-67
2022/11/18 09:04:01;;;;;;;9.87;3.77;;;10.40;99.90;;;;;;4991875;28;20243;-69
2022/11/18 09:06:27;;;;;;;8.03;3.70;;;10.40;99.90;;;;;;4992051;28;20291;-68
2022/11/18 09:08:55;;;;;;;5.53;3.50;;;10.50;99.90;;;;;;4992871;28;20257;-68
2022/11/18 09:11:24;;;;;;;9.23;3.87;;;10.40;99.90;;;;;;4992896;28;20222;-68
2022/11/18 09:13:59;;;;;;;7.90;3.50;;;10.50;99.90;;;;;;4992298;28;20225;-68
2022/11/18 09:16:27;;;;;;;9.53;3.53;;;10.50;99.90;;;;;;4992740;28;20189;-68
2022/11/18 09:18:54;;;;;;;7.20;3.23;;;10.60;99.90;;;;;;4992144;28;20216;-67
2022/11/18 09:21:19;;;;;;;4.20;3.43;;;10.70;99.90;;;;;;4991504;28;20186;-69
2022/11/18 09:23:45;;;;;;;6.27;3.00;;;10.80;99.90;;;;;;4991368;28;20171;-67
2022/11/18 09:26:13;;;;;;;8.07;3.40;;;10.80;99.90;;;;;;4993941;28;20640;-68
2022/11/18 09:28:39;;;;;;;8.80;3.50;;;10.80;99.90;;;;;;4996272;28;20175;-69
2022/11/18 09:31:07;;;;;;;5.90;3.30;;;10.80;99.90;;;;;;4996113;28;20171;-70
2022/11/18 09:33:33;;;;;;;5.60;3.43;;;10.80;99.90;;;;;;4994059;28;20218;-70
2022/11/18 09:36:03;;;;;;;8.80;3.53;;;10.90;99.90;;;;;;4996525;28;20215;-69
2022/11/18 09:38:29;;;;;;;7.67;2.67;;;11.00;99.90;;;;;;4996034;28;20718;-68
2022/11/18 09:41:06;;;;;;;6.33;3.43;;;11.00;99.90;;;;;;4995812;28;20171;-68
2022/11/18 09:43:47;;;;;;;7.87;3.97;;;11.00;99.90;;;;;;4979226;28;20592;-69
2022/11/18 09:46:56;;;;;;;9.60;2.90;;;11.00;99.90;;;;;;4976475;28;20174;-69
2022/11/18 09:49:37;;;;;;;7.87;3.20;;;11.00;99.90;;;;;;4976562;28;20191;-69
2022/11/18 09:52:16;;;;;;;5.03;2.40;;;11.10;99.90;;;;;;4976596;28;20203;-69
2022/11/18 09:54:42;;;;;;;6.90;3.03;;;11.10;99.90;;;;;;4975879;28;20180;-69
2022/11/18 09:57:28;;;;;;;8.80;2.80;;;11.10;99.90;;;;;;4976568;28;20179;-70
2022/11/18 09:59:54;;;;;;;7.53;3.20;;;11.10;99.90;;;;;;4975269;28;20176;-69
2022/11/18 10:02:42;;;;;;;7.13;3.10;;;11.10;99.90;;;;;;4976266;28;20198;-69
2022/11/18 10:05:20;;;;;;;7.53;2.83;;;11.30;99.90;;;;;;4975347;28;20242;-69
2022/11/18 10:08:04;;;;;;;4.20;2.10;;;11.40;99.90;;;;;;4975200;28;20172;-69
2022/11/18 10:10:48;;;;;;;7.13;3.00;;;11.40;99.90;;;;;;4976553;28;20168;-69
2022/11/18 10:13:33;;;;;;;5.97;2.93;;;11.50;99.90;;;;;;4975838;28;20226;-70
2022/11/18 10:16:17;;;;;;;7.60;2.67;;;11.60;99.90;;;;;;4976091;28;20164;-70
2022/11/18 10:19:44;;;;;;;9.07;2.77;;;11.80;99.90;;;;;;4995712;28;20231;-69
2022/11/18 10:22:21;;;;;;;7.07;2.63;;;11.90;99.90;;;;;;4938527;28;20312;-68
2022/11/18 10:24:55;;;;;;;4.93;2.80;;;11.90;99.90;;;;;;4954226;28;20263;-69
2022/11/18 10:27:22;;;;;;;6.80;2.60;;;11.90;99.90;;;;;;4938990;29;20192;-70
2022/11/18 10:29:54;;;;;;;4.10;2.50;;;11.90;99.90;;;;;;4938301;29;20188;-70
2022/11/18 10:32:19;;;;;;;5.40;2.20;;;11.90;99.90;;;;;;4938290;29;20676;-68
2022/11/18 10:34:54;;;;;;;6.00;2.40;;;11.90;99.90;;;;;;4953485;28;20188;-70
2022/11/18 10:37:25;;;;;;;7.67;3.27;;;11.90;99.90;;;;;;4953070;28;20223;-69
2022/11/18 10:40:02;;;;;;;3.90;2.40;;;11.80;99.90;;;;;;4954517;29;20197;-68
2022/11/18 10:42:40;;;;;;;5.83;2.40;;;11.90;99.90;;;;;;4950554;28;20187;-70
2022/11/18 10:45:29;;;;;;;5.00;2.27;;;11.90;99.90;;;;;;4953448;28;20183;-70
2022/11/18 10:48:16;;;;;;;7.87;2.30;;;12.00;99.90;;;;;;4953496;29;20268;-69
2022/11/18 10:50:44;;;;;;;11.67;4.07;;;12.00;99.90;;;;;;4954046;28;20275;-69
2022/11/18 10:53:28;;;;;;;7.80;3.07;;;11.90;99.90;;;;;;4970414;28;20227;-70
2022/11/18 10:56:05;;;;;;;9.00;2.50;;;12.00;99.90;;;;;;4994435;28;20298;-70
2022/11/18 10:58:37;;;;;;;7.73;2.03;;;11.90;99.90;;;;;;4994183;28;20655;-70
2022/11/18 11:01:22;;;;;;;3.03;1.77;;;12.10;99.90;;;;;;4994132;28;20187;-69
2022/11/18 11:04:17;;;;;;;5.67;2.27;;;12.00;99.90;;;;;;4994591;28;20257;-70
2022/11/18 11:06:43;;;;;;;5.67;2.10;;;12.00;99.90;;;;;;4994619;28;20650;-68
2022/11/18 11:09:14;;;;;;;9.40;2.60;;;11.90;99.90;;;;;;4994499;28;20183;-69
2022/11/18 11:12:00;;;;;;;5.13;2.10;;;12.00;99.90;;;;;;4994246;28;20667;-69
2022/11/18 11:14:41;;;;;;;8.27;2.47;;;11.90;99.90;;;;;;4992771;28;20183;-69
2022/11/18 11:17:27;;;;;;;6.93;2.37;;;11.80;99.90;;;;;;4994223;28;20181;-69
2022/11/18 11:20:10;;;;;;;4.07;2.10;;;11.80;99.90;;;;;;4994601;28;20259;-70
2022/11/18 11:22:35;;;;;;;3.67;1.97;;;11.80;99.90;;;;;;4994177;28;20183;-69
2022/11/18 11:25:01;;;;;;;4.17;2.73;;;11.80;99.90;;;;;;4994092;28;20254;-70
2022/11/18 11:27:48;;;;;;;5.53;2.13;;;11.80;99.90;;;;;;4993769;28;20179;-70
2022/11/18 11:30:16;;;;;;;3.90;2.27;;;11.90;99.90;;;;;;4993378;28;20197;-70
2022/11/18 11:32:56;;;;;;;3.20;1.90;;;11.90;99.90;;;;;;4993608;28;20237;-69
2022/11/18 11:35:30;;;;;;;7.73;2.87;;;12.10;99.90;;;;;;4993816;28;20212;-69
2022/11/18 11:38:05;;;;;;;4.50;2.20;;;12.10;99.90;;;;;;4993926;28;20185;-69
2022/11/18 11:40:49;;;;;;;3.20;2.27;;;12.10;99.90;;;;;;4994142;28;20225;-69
2022/11/18 11:43:48;;;;;;;5.37;2.30;;;12.10;99.90;;;;;;4993283;28;20483;-69
2022/11/18 11:46:29;;;;;;;5.90;2.13;;;12.10;99.90;;;;;;4993314;28;20163;-70
2022/11/18 11:48:59;;;;;;;9.67;3.10;;;12.00;99.90;;;;;;4992294;28;20274;-69
2022/11/18 11:51:47;;;;;;;7.83;2.27;;;12.10;99.90;;;;;;4993491;28;20182;-70
2022/11/18 11:54:36;;;;;;;7.30;2.97;;;12.20;99.90;;;;;;4984471;28;20276;-69
2022/11/18 11:57:27;;;;;;;5.60;2.40;;;12.40;99.90;;;;;;4992572;28;20183;-69
2022/11/18 12:00:08;;;;;;;6.53;2.70;;;12.50;99.90;;;;;;5000202;28;20197;-70
2022/11/18 12:02:55;;;;;;;5.97;2.23;;;12.40;99.90;;;;;;5000557;28;20230;-69
2022/11/18 12:05:38;;;;;;;8.47;2.63;;;12.20;99.90;;;;;;5009070;28;20174;-68
2022/11/18 12:08:19;;;;;;;7.77;3.40;;;12.30;99.90;;;;;;4995296;28;20283;-69
2022/11/18 12:11:04;;;;;;;9.67;2.80;;;12.20;99.90;;;;;;4986541;28;20179;-68
2022/11/18 12:13:57;;;;;;;8.87;2.70;;;12.10;99.90;;;;;;4986184;28;20206;-70
2022/11/18 12:16:53;;;;;;;6.03;2.47;;;12.20;99.90;;;;;;4986689;28;20233;-70
2022/11/18 12:19:22;;;;;;;9.73;2.67;;;12.20;99.90;;;;;;4987545;28;20890;-69
2022/11/18 12:21:52;;;;;;;6.40;2.30;;;12.10;99.90;;;;;;4983351;28;20259;-70
2022/11/18 12:24:37;;;;;;;5.40;2.40;;;12.20;99.90;;;;;;5010978;28;20184;-70
2022/11/18 12:27:13;;;;;;;7.53;2.70;;;12.20;99.90;;;;;;4995656;28;20191;-70
2022/11/18 12:29:47;;;;;;;7.67;2.23;;;12.20;99.90;;;;;;5005851;28;20261;-69
2022/11/18 12:32:41;;;;;;;6.57;2.67;;;12.20;99.90;;;;;;5003892;28;20230;-69
2022/11/18 12:35:12;;;;;;;5.63;2.20;;;12.30;99.90;;;;;;4995991;28;20262;-68
2022/11/18 12:37:43;;;;;;;6.23;2.10;;;12.20;99.90;;;;;;5005342;28;20223;-69
2022/11/18 12:40:29;;;;;;;8.00;3.37;;;12.10;99.90;;;;;;5003027;28;20167;-71
2022/11/18 12:45:42;;;;;;;4.77;2.10;;;12.10;99.90;;;;;;5004576;28;20518;-68
2022/11/18 12:48:23;;;;;;;7.83;2.43;;;12.10;99.90;;;;;;4994243;28;20178;-70
2022/11/18 12:50:51;;;;;;;3.40;2.30;;;12.10;99.90;;;;;;4994220;28;20175;-70
2022/11/18 12:53:40;;;;;;;5.43;2.27;;;12.30;99.90;;;;;;4979755;28;20225;-70
2022/11/18 12:56:25;;;;;;;5.73;2.40;;;12.20;99.90;;;;;;5001767;28;20195;-72
2022/11/18 12:58:55;;;;;;;6.13;2.20;;;12.20;99.90;;;;;;5008659;28;20206;-69
2022/11/18 13:01:23;;;;;;;3.27;2.20;;;12.20;99.90;;;;;;4985052;28;20261;-69
2022/11/18 13:03:49;;;;;;;7.40;2.40;;;12.20;99.90;;;;;;5010321;28;20191;-69
2022/11/18 13:06:28;;;;;;;9.67;2.43;;;12.30;99.90;;;;;;5009980;28;20192;-69
2022/11/18 13:09:00;;;;;;;6.33;2.47;;;12.20;99.90;;;;;;5007874;28;20198;-70
2022/11/18 13:11:43;;;;;;;6.23;2.67;;;12.20;99.90;;;;;;4999716;28;20162;-69
2022/11/18 13:20:34;;;;;;;4.97;2.57;;;12.50;99.90;;;;;;5006380;28;20182;-71
2022/11/18 13:26:01;;;;;;;7.10;2.53;;;12.50;99.90;;;;;;5006716;28;20608;-70
2022/11/18 13:28:44;;;;;;;6.20;2.70;;;12.50;99.90;;;;;;5006172;28;20187;-70
2022/11/18 13:31:16;;;;;;;8.97;2.87;;;12.50;99.90;;;;;;5015375;28;20182;-69
2022/11/18 13:33:42;;;;;;;10.23;3.40;;;12.50;99.90;;;;;;4998290;28;20211;-69
2022/11/18 13:36:40;;;;;;;5.80;2.77;;;12.50;99.90;;;;;;5006407;28;20223;-70
2022/11/18 13:39:16;;;;;;;6.83;2.77;;;12.60;99.90;;;;;;4999484;28;20179;-69
2022/11/18 13:42:06;;;;;;;6.57;2.90;;;12.50;99.90;;;;;;5018525;28;20188;-69
2022/11/18 13:44:34;;;;;;;9.53;2.67;;;12.60;99.90;;;;;;5004880;28;20221;-68
2022/11/18 13:47:22;;;;;;;9.80;2.67;;;12.60;99.90;;;;;;5015207;28;20202;-70
2022/11/18 13:50:06;;;;;;;10.37;3.63;;;12.50;99.90;;;;;;5005496;28;20170;-70